createdAt,value
2022-11-03T00:01:51.215Z,4.30
2022-11-03T00:04:22.855Z,4.50
2022-11-03T00:06:53.755Z,4.23
2022-11-03T00:09:24.298Z,4.60
2022-11-03T00:11:53.230Z,4.43
2022-11-03T00:14:21.531Z,4.47
2022-11-03T00:16:50.325Z,4.50
2022-11-03T00:19:19.933Z,4.60
2022-11-03T00:21:48.301Z,4.03
2022-11-03T00:24:16.541Z,4.60
2022-11-03T00:26:44.824Z,3.83
2022-11-03T00:29:15.257Z,4.10
2022-11-03T00:31:45.697Z,4.80
2022-11-03T00:34:14.138Z,4.30
2022-11-03T00:36:46.098Z,4.47
2022-11-03T00:39:14.574Z,4.03
2022-11-03T00:41:42.910Z,4.33
2022-11-03T00:44:13.292Z,4.70
2022-11-03T00:46:41.527Z,4.67
2022-11-03T00:49:09.863Z,4.70
2022-11-03T00:51:38.125Z,4.33
2022-11-03T00:54:08.377Z,5.47
2022-11-03T00:56:38.802Z,4.57
2022-11-03T00:59:09.094Z,4.77
2022-11-03T01:01:46.017Z,4.83
2022-11-03T01:04:35.009Z,5.63
2022-11-03T01:07:05.773Z,6.03
2022-11-03T01:09:39.588Z,5.70
2022-11-03T01:12:11.403Z,5.83
2022-11-03T01:14:42.907Z,5.50
2022-11-03T01:17:16.429Z,6.03
2022-11-03T01:19:45.292Z,5.43
2022-11-03T01:22:14.613Z,5.43
2022-11-03T01:24:44.871Z,5.53
2022-11-03T01:27:17.003Z,5.37
2022-11-03T01:29:45.466Z,5.30
2022-11-03T01:32:14.003Z,5.37
2022-11-03T01:34:42.296Z,5.73
2022-11-03T01:37:10.756Z,5.20
2022-11-03T01:39:39.016Z,6.20
2022-11-03T01:42:08.644Z,6.20
2022-11-03T01:44:47.025Z,6.50
2022-11-03T01:47:22.836Z,6.27
2022-11-03T01:49:57.311Z,6.20
2022-11-03T01:52:29.642Z,6.40
2022-11-03T01:55:03.703Z,5.07
2022-11-03T01:57:39.972Z,6.03
2022-11-03T02:00:10.126Z,5.10
2022-11-03T02:02:38.563Z,3.73
2022-11-03T02:05:08.803Z,3.63
2022-11-03T02:07:41.692Z,3.80
2022-11-03T02:10:11.025Z,3.40
2022-11-03T02:12:41.336Z,3.20
2022-11-03T02:15:12.429Z,2.57
2022-11-03T02:17:43.137Z,2.80
2022-11-03T02:20:16.143Z,3.20
2022-11-03T02:23:12.806Z,3.43
2022-11-03T02:25:48.800Z,3.50
2022-11-03T02:28:20.836Z,3.13
2022-11-03T02:30:59.103Z,3.70
2022-11-03T02:33:49.896Z,4.00
2022-11-03T02:36:24.192Z,3.90
2022-11-03T02:38:59.354Z,3.40
2022-11-03T02:41:30.953Z,3.40
2022-11-03T02:43:59.834Z,4.03
2022-11-03T02:46:29.277Z,3.40
2022-11-03T02:48:57.790Z,4.10
2022-11-03T02:51:26.309Z,3.80
2022-11-03T02:54:05.385Z,3.40
2022-11-03T02:56:41.505Z,3.00
2022-11-03T02:59:13.719Z,3.70
2022-11-03T03:01:52.592Z,3.17
2022-11-03T03:04:30.037Z,3.57
2022-11-03T03:07:03.055Z,3.20
2022-11-03T03:09:38.738Z,3.60
2022-11-03T03:12:12.049Z,3.80
2022-11-03T03:14:43.799Z,4.07
2022-11-03T03:17:25.740Z,3.53
2022-11-03T03:20:02.338Z,3.70
2022-11-03T03:22:36.491Z,4.53
2022-11-03T03:25:14.468Z,5.13
2022-11-03T03:27:49.155Z,4.90
2022-11-03T03:30:18.847Z,5.13
2022-11-03T03:35:22.343Z,4.90
2022-11-03T03:37:53.443Z,5.13
2022-11-03T03:40:26.954Z,5.17
2022-11-03T03:42:57.280Z,5.33
2022-11-03T03:45:27.292Z,5.43
2022-11-03T03:47:57.757Z,4.87
2022-11-03T03:50:29.780Z,4.37
2022-11-03T03:53:01.819Z,4.30
2022-11-03T03:55:37.348Z,4.70
2022-11-03T03:58:08.545Z,4.83
2022-11-03T04:00:40.103Z,4.60
2022-11-03T04:03:15.461Z,5.27
2022-11-03T04:05:43.775Z,5.70
2022-11-03T04:08:12.520Z,5.33
2022-11-03T04:10:40.910Z,6.03
2022-11-03T04:13:29.040Z,6.40
2022-11-03T04:16:14.431Z,5.23
2022-11-03T04:19:00.024Z,6.33
2022-11-03T04:21:45.409Z,5.80
2022-11-03T04:24:13.637Z,5.70
2022-11-03T04:26:42.365Z,6.67
2022-11-03T04:29:13.224Z,7.70
2022-11-03T04:31:41.517Z,6.17
2022-11-03T04:34:13.608Z,5.53
2022-11-03T04:36:41.828Z,6.20
2022-11-03T04:39:19.752Z,6.77
2022-11-03T04:41:48.438Z,4.80
2022-11-03T04:44:18.459Z,5.60
2022-11-03T04:46:47.773Z,4.57
2022-11-03T04:49:24.028Z,4.53
2022-11-03T04:51:52.500Z,4.03
2022-11-03T04:54:24.367Z,4.43
2022-11-03T04:56:52.754Z,3.63
2022-11-03T04:59:22.456Z,4.20
2022-11-03T05:01:50.867Z,3.33
2022-11-03T05:04:20.138Z,4.37
2022-11-03T05:06:52.527Z,5.23
2022-11-03T05:09:24.775Z,6.07
2022-11-03T05:11:53.153Z,5.77
2022-11-03T05:14:25.610Z,5.70
2022-11-03T05:16:55.448Z,5.97
2022-11-03T05:19:29.506Z,5.87
2022-11-03T05:22:01.359Z,4.80
2022-11-03T05:24:30.910Z,4.53
2022-11-03T05:27:00.935Z,5.27
2022-11-03T05:29:37.607Z,4.67
2022-11-03T05:32:13.186Z,4.87
2022-11-03T05:34:45.382Z,4.80
2022-11-03T05:37:27.275Z,4.80
2022-11-03T05:39:59.784Z,4.70
2022-11-03T05:42:34.276Z,4.97
2022-11-03T05:45:14.115Z,5.30
2022-11-03T05:47:42.935Z,4.40
2022-11-03T05:50:21.245Z,4.90
2022-11-03T05:52:53.345Z,3.87
2022-11-03T05:55:29.493Z,4.57
2022-11-03T05:58:01.322Z,4.43
2022-11-03T06:00:35.695Z,4.00
2022-11-03T06:03:04.376Z,4.03
2022-11-03T06:05:34.383Z,3.87
2022-11-03T06:08:08.650Z,4.10
2022-11-03T06:10:43.869Z,3.80
2022-11-03T06:13:17.208Z,3.80
2022-11-03T06:15:49.448Z,3.70
2022-11-03T06:18:24.350Z,3.67
2022-11-03T06:20:56.758Z,3.30
2022-11-03T06:23:25.414Z,3.50
2022-11-03T06:25:55.568Z,3.53
2022-11-03T06:28:30.189Z,3.63
2022-11-03T06:30:59.942Z,3.80
2022-11-03T06:33:30.996Z,3.57
2022-11-03T06:36:04.562Z,3.30
2022-11-03T06:38:36.105Z,4.03
2022-11-03T06:41:04.375Z,4.70
2022-11-03T06:43:39.232Z,5.60
2022-11-03T06:46:15.600Z,5.53
2022-11-03T06:48:43.880Z,6.00
2022-11-03T06:51:19.824Z,5.53
2022-11-03T06:53:49.129Z,6.00
2022-11-03T06:56:23.003Z,8.57
2022-11-03T06:58:53.958Z,8.60
2022-11-03T07:01:26.977Z,7.03
2022-11-03T07:04:02.049Z,8.20
2022-11-03T07:06:33.460Z,7.60
2022-11-03T07:09:04.998Z,7.83
2022-11-03T07:11:37.340Z,7.17
2022-11-03T07:14:14.852Z,7.33
2022-11-03T07:16:46.976Z,6.57
2022-11-03T07:19:20.479Z,7.70
2022-11-03T07:21:51.806Z,5.90
2022-11-03T07:24:25.920Z,5.57
2022-11-03T07:27:01.059Z,5.13
2022-11-03T07:29:32.151Z,5.53
2022-11-03T07:32:02.024Z,4.73
2022-11-03T07:34:34.044Z,6.70
2022-11-03T07:37:02.563Z,6.47
2022-11-03T07:39:36.838Z,6.17
2022-11-03T07:42:14.357Z,6.10
2022-11-03T07:44:42.720Z,6.60
2022-11-03T07:47:17.831Z,7.80
2022-11-03T07:49:46.550Z,8.73
2022-11-03T07:52:18.002Z,10.40
2022-11-03T07:54:46.412Z,9.93
2022-11-03T07:57:21.266Z,10.47
2022-11-03T07:59:52.225Z,9.77
2022-11-03T08:02:33.035Z,10.00
2022-11-03T08:05:01.969Z,10.50
2022-11-03T08:07:31.503Z,8.67
2022-11-03T08:10:00.073Z,8.80
2022-11-03T08:12:28.418Z,8.23
2022-11-03T08:14:56.728Z,7.80
2022-11-03T08:17:26.461Z,7.37
2022-11-03T08:19:54.853Z,7.07
2022-11-03T08:22:25.901Z,6.53
2022-11-03T08:24:54.594Z,7.00
2022-11-03T08:27:22.926Z,7.90
2022-11-03T08:29:51.199Z,7.13
2022-11-03T08:32:19.423Z,6.77
2022-11-03T08:34:49.173Z,6.47
2022-11-03T08:37:17.441Z,5.73
2022-11-03T08:39:45.694Z,6.13
2022-11-03T08:42:14.016Z,5.67
2022-11-03T08:44:42.291Z,6.17
2022-11-03T08:47:10.566Z,10.20
2022-11-03T08:49:38.844Z,17.57
2022-11-03T08:52:08.532Z,6.50
2022-11-03T08:54:36.765Z,6.33
2022-11-03T08:57:05.104Z,6.23
2022-11-03T08:59:33.371Z,6.23
2022-11-03T09:02:01.808Z,6.33
2022-11-03T09:04:30.120Z,4.80
2022-11-03T09:06:58.401Z,8.60
2022-11-03T09:12:16.242Z,9.37
2022-11-03T09:14:44.996Z,7.47
2022-11-03T09:17:13.368Z,4.63
2022-11-03T09:19:41.638Z,4.60
2022-11-03T09:22:09.901Z,4.87
2022-11-03T09:24:39.595Z,5.90
2022-11-03T09:27:07.830Z,5.47
2022-11-03T09:29:58.386Z,4.77
2022-11-03T09:32:24.709Z,4.60
2022-11-03T09:34:53.133Z,4.27
2022-11-03T09:37:22.888Z,4.10
2022-11-03T09:39:52.788Z,3.20
2022-11-03T09:42:21.532Z,3.50
2022-11-03T09:44:51.665Z,3.67
2022-11-03T09:47:25.212Z,3.30
2022-11-03T09:49:53.828Z,3.30
2022-11-03T09:52:25.859Z,3.60
2022-11-03T09:54:56.591Z,3.90
2022-11-03T09:57:27.873Z,3.63
2022-11-03T09:59:56.832Z,3.87
2022-11-03T10:02:29.369Z,3.40
2022-11-03T10:05:00.202Z,3.70
2022-11-03T10:07:31.456Z,3.60
2022-11-03T10:10:02.091Z,3.20
2022-11-03T10:12:37.884Z,3.10
2022-11-03T10:15:08.193Z,3.70
2022-11-03T10:17:36.484Z,3.23
2022-11-03T10:20:07.831Z,3.60
2022-11-03T10:22:40.845Z,3.00
2022-11-03T10:25:37.804Z,3.43
2022-11-03T10:28:19.452Z,3.20
2022-11-03T10:31:10.577Z,3.47
2022-11-03T10:33:41.872Z,2.80
2022-11-03T10:36:26.328Z,4.00
2022-11-03T10:38:55.559Z,3.57
2022-11-03T10:41:27.014Z,3.20
2022-11-03T10:44:04.548Z,2.93
2022-11-03T10:46:49.677Z,3.90
2022-11-03T10:49:21.091Z,2.97
2022-11-03T10:51:52.571Z,3.40
2022-11-03T10:54:23.877Z,2.97
2022-11-03T10:56:54.310Z,3.30
2022-11-03T10:59:31.558Z,3.30
2022-11-03T11:02:00.658Z,2.93
2022-11-03T11:04:29.407Z,2.90
2022-11-03T11:06:57.727Z,3.13
2022-11-03T11:09:28.185Z,3.27
2022-11-03T11:12:16.795Z,3.43
2022-11-03T11:14:56.601Z,2.90
2022-11-03T11:17:49.660Z,2.87
2022-11-03T11:20:33.305Z,3.03
2022-11-03T11:23:52.463Z,2.83
2022-11-03T11:26:41.792Z,3.20
2022-11-03T11:29:44.941Z,2.83
2022-11-03T11:32:57.723Z,3.10
2022-11-03T11:36:28.893Z,2.93
2022-11-03T11:38:59.623Z,3.50
2022-11-03T11:42:08.738Z,2.90
2022-11-03T11:45:02.013Z,3.47
2022-11-03T11:47:49.732Z,3.20
2022-11-03T11:50:29.649Z,3.00
2022-11-03T11:53:01.580Z,3.40
2022-11-03T11:55:40.059Z,3.70
2022-11-03T11:58:20.672Z,3.27
2022-11-03T12:00:57.416Z,3.17
2022-11-03T12:03:30.818Z,3.17
2022-11-03T12:05:59.161Z,3.80
2022-11-03T12:08:30.891Z,3.53
2022-11-03T12:11:02.172Z,4.00
2022-11-03T12:13:47.505Z,3.93
2022-11-03T12:16:38.111Z,3.33
2022-11-03T12:19:41.886Z,3.27
2022-11-03T12:22:11.652Z,3.57
2022-11-03T12:24:50.124Z,3.47
2022-11-03T12:27:43.877Z,3.47
2022-11-03T12:30:19.101Z,3.57
2022-11-03T12:32:49.358Z,3.00
2022-11-03T12:35:17.961Z,3.30
2022-11-03T12:37:46.845Z,3.67
2022-11-03T12:40:15.395Z,2.93
2022-11-03T12:42:43.783Z,3.30
2022-11-03T12:45:14.370Z,3.67
2022-11-03T12:47:42.642Z,4.03
2022-11-03T12:50:13.140Z,3.97
2022-11-03T12:52:41.425Z,3.67
2022-11-03T12:55:10.546Z,3.87
2022-11-03T12:57:38.821Z,3.70
2022-11-03T13:00:09.168Z,3.43
2022-11-03T13:02:37.605Z,3.60
2022-11-03T13:05:07.784Z,3.93
2022-11-03T13:07:37.456Z,3.73
2022-11-03T13:10:06.578Z,3.77
2022-11-03T13:12:36.700Z,3.63
2022-11-03T13:15:07.665Z,3.40
2022-11-03T13:17:59.310Z,3.87
2022-11-03T13:20:24.565Z,3.60
2022-11-03T13:22:54.263Z,3.70
2022-11-03T13:25:24.394Z,4.03
2022-11-03T13:27:54.435Z,3.83
2022-11-03T13:30:23.181Z,3.33
2022-11-03T13:32:51.658Z,3.90
2022-11-03T13:35:20.341Z,4.13
2022-11-03T13:37:48.997Z,3.50
2022-11-03T13:40:50.298Z,3.70
2022-11-03T13:43:07.543Z,4.30
2022-11-03T13:45:36.047Z,3.90
2022-11-03T13:50:53.685Z,3.87
2022-11-03T13:56:19.292Z,4.10
2022-11-03T14:01:39.223Z,4.57
2022-11-03T14:06:57.502Z,4.73
2022-11-03T14:09:26.664Z,4.60
2022-11-03T14:12:13.962Z,4.63
2022-11-03T14:14:42.504Z,4.67
2022-11-03T14:17:11.327Z,5.60
2022-11-03T14:19:44.805Z,5.77
2022-11-03T14:22:14.490Z,5.00
2022-11-03T14:24:42.771Z,5.80
2022-11-03T14:27:12.884Z,6.07
2022-11-03T14:29:41.173Z,5.50
2022-11-03T14:32:09.441Z,8.03
2022-11-03T14:34:38.433Z,8.07
2022-11-03T14:37:08.914Z,7.23
2022-11-03T14:39:37.644Z,6.27
2022-11-03T14:42:05.391Z,14.50
2022-11-03T14:44:36.737Z,9.47
2022-11-03T14:47:07.604Z,6.73
2022-11-03T14:49:37.025Z,6.77
2022-11-03T14:52:08.095Z,5.57
2022-11-03T14:54:37.329Z,5.03
2022-11-03T14:57:06.265Z,4.60
2022-11-03T14:59:36.030Z,4.67
2022-11-03T15:02:05.831Z,3.90
2022-11-03T15:04:34.589Z,3.93
2022-11-03T15:07:02.908Z,4.37
2022-11-03T15:09:31.253Z,3.70
2022-11-03T15:11:59.513Z,3.63
2022-11-03T15:14:28.131Z,3.67
2022-11-03T15:16:57.809Z,3.73
2022-11-03T15:19:26.089Z,4.13
2022-11-03T15:21:54.366Z,3.93
2022-11-03T15:27:10.864Z,3.60
2022-11-03T15:29:39.135Z,3.77
2022-11-03T15:32:08.960Z,4.20
2022-11-03T15:34:37.243Z,3.90
2022-11-03T15:37:06.618Z,4.03
2022-11-03T15:39:34.984Z,3.53
2022-11-03T15:42:03.308Z,4.10
2022-11-03T15:44:31.716Z,3.93
2022-11-03T15:47:00.127Z,3.60
2022-11-03T15:49:29.802Z,3.33
2022-11-03T15:51:58.086Z,3.40
2022-11-03T15:54:26.405Z,3.57
2022-11-03T15:56:54.685Z,3.83
2022-11-03T15:59:22.961Z,4.63
2022-11-03T16:01:51.534Z,8.43
2022-11-03T16:04:20.001Z,9.00
2022-11-03T16:09:38.012Z,8.80
2022-11-03T16:12:06.837Z,12.17
2022-11-03T16:14:35.177Z,14.40
2022-11-03T16:17:05.177Z,9.47
2022-11-03T16:19:33.721Z,7.77
2022-11-03T16:22:03.540Z,8.37
2022-11-03T16:24:35.226Z,8.93
2022-11-03T16:27:04.356Z,10.17
2022-11-03T16:29:32.728Z,8.20
2022-11-03T16:32:01.122Z,7.90
2022-11-03T16:34:29.398Z,10.10
2022-11-03T16:36:57.911Z,10.03
2022-11-03T16:39:27.659Z,8.60
2022-11-03T16:41:55.981Z,10.10
2022-11-03T16:44:24.426Z,10.13
2022-11-03T16:46:52.806Z,13.40
2022-11-03T16:49:21.158Z,12.50
2022-11-03T16:51:49.522Z,15.00
2022-11-03T16:54:17.933Z,15.63
2022-11-03T16:56:51.964Z,12.87
2022-11-03T16:59:24.393Z,13.40
2022-11-03T17:01:53.143Z,12.70
2022-11-03T17:04:21.658Z,13.77
2022-11-03T17:06:50.002Z,14.57
2022-11-03T17:09:18.388Z,11.70
2022-11-03T17:11:48.196Z,11.70
2022-11-03T17:14:16.569Z,9.93
2022-11-03T17:16:46.723Z,9.60
2022-11-03T17:19:15.622Z,10.47
2022-11-03T17:21:43.990Z,9.33
2022-11-03T17:24:13.300Z,9.13
2022-11-03T17:26:55.673Z,8.63
2022-11-03T17:29:35.543Z,8.77
2022-11-03T17:32:05.987Z,8.13
2022-11-03T17:34:34.504Z,14.70
2022-11-03T17:37:02.955Z,19.40
2022-11-03T17:39:34.545Z,30.40
2022-11-03T17:42:16.185Z,12.87
2022-11-03T17:44:45.208Z,20.23
2022-11-03T17:47:13.547Z,13.27
2022-11-03T17:49:41.881Z,16.93
2022-11-03T17:52:16.420Z,11.57
2022-11-03T17:54:45.243Z,11.37
2022-11-03T17:57:19.141Z,11.10
2022-11-03T17:59:50.910Z,16.10
2022-11-03T18:02:22.451Z,29.97
2022-11-03T18:04:52.364Z,19.80
2022-11-03T18:07:23.817Z,13.77
2022-11-03T18:09:52.281Z,18.53
2022-11-03T18:12:44.690Z,16.50
2022-11-03T18:15:17.056Z,16.13
2022-11-03T18:17:45.502Z,14.20
2022-11-03T18:20:17.413Z,14.73
2022-11-03T18:22:46.573Z,11.90
2022-11-03T18:25:16.169Z,12.10
2022-11-03T18:27:46.025Z,11.10
2022-11-03T18:30:17.327Z,11.90
2022-11-03T18:32:46.893Z,11.07
2022-11-03T18:35:19.833Z,11.03
2022-11-03T18:37:48.267Z,11.37
2022-11-03T18:40:17.689Z,11.63
2022-11-03T18:42:47.704Z,12.10
2022-11-03T18:45:18.931Z,11.80
2022-11-03T18:47:47.333Z,13.30
2022-11-03T18:50:18.332Z,14.67
2022-11-03T18:52:49.292Z,35.20
2022-11-03T18:55:18.478Z,54.40
2022-11-03T18:57:48.588Z,37.13
2022-11-03T19:00:22.737Z,33.10
2022-11-03T19:02:51.533Z,25.20
2022-11-03T19:05:20.671Z,19.37
2022-11-03T19:07:51.093Z,15.43
2022-11-03T19:10:22.407Z,12.63
2022-11-03T19:12:52.319Z,10.53
2022-11-03T19:15:23.639Z,12.60
2022-11-03T19:17:57.290Z,13.13
2022-11-03T19:20:25.995Z,13.50
2022-11-03T19:22:54.332Z,16.87
2022-11-03T19:25:22.720Z,16.50
2022-11-03T19:27:52.427Z,15.80
2022-11-03T19:30:21.521Z,19.17
2022-11-03T19:32:53.386Z,19.13
2022-11-03T19:35:24.432Z,21.67
2022-11-03T19:38:01.300Z,21.00
2022-11-03T19:40:30.186Z,20.63
2022-11-03T19:42:59.291Z,23.47
2022-11-03T19:45:28.942Z,28.60
2022-11-03T19:50:48.789Z,21.90
2022-11-03T19:53:23.555Z,26.13
2022-11-03T19:55:51.952Z,20.97
2022-11-03T19:58:24.524Z,20.10
2022-11-03T20:00:55.084Z,19.80
2022-11-03T20:03:24.201Z,21.73
2022-11-03T20:05:55.382Z,18.90
2022-11-03T20:08:27.020Z,17.97
2022-11-03T20:10:55.983Z,15.13
2022-11-03T20:13:28.773Z,16.33
2022-11-03T20:16:00.648Z,15.17
2022-11-03T20:18:30.444Z,15.47
2022-11-03T20:20:59.569Z,14.43
2022-11-03T20:23:30.836Z,15.53
2022-11-03T20:25:59.381Z,15.47
2022-11-03T20:28:32.348Z,15.97
2022-11-03T20:31:03.665Z,15.07
2022-11-03T20:33:32.424Z,14.17
2022-11-03T20:36:01.309Z,14.73
2022-11-03T20:38:30.154Z,12.70
2022-11-03T20:41:03.404Z,12.80
2022-11-03T20:43:36.949Z,12.07
2022-11-03T20:46:26.181Z,10.93
2022-11-03T20:48:56.325Z,9.63
2022-11-03T20:51:28.412Z,9.93
2022-11-03T20:53:57.259Z,9.53
2022-11-03T20:56:28.563Z,10.33
2022-11-03T20:58:58.696Z,10.93
2022-11-03T21:01:33.052Z,10.50
2022-11-03T21:04:03.215Z,10.20
2022-11-03T21:06:33.661Z,10.20
2022-11-03T21:09:02.080Z,9.80
2022-11-03T21:11:36.810Z,10.63
2022-11-03T21:14:15.878Z,11.53
2022-11-03T21:17:01.513Z,10.17
2022-11-03T21:19:55.569Z,9.47
2022-11-03T21:25:23.345Z,8.43
2022-11-03T21:27:52.193Z,10.07
2022-11-03T21:30:23.012Z,9.93
2022-11-03T21:32:51.354Z,9.73
2022-11-03T21:35:23.349Z,8.77
2022-11-03T21:37:51.651Z,9.00
2022-11-03T21:40:20.053Z,9.67
2022-11-03T21:43:04.995Z,9.53
2022-11-03T21:45:35.972Z,8.97
2022-11-03T21:48:22.713Z,9.57
2022-11-03T21:50:51.305Z,9.60
2022-11-03T21:53:19.764Z,10.20
2022-11-03T21:55:49.469Z,9.93
2022-11-03T21:58:17.839Z,9.97
2022-11-03T22:00:47.614Z,10.20
2022-11-03T22:03:16.057Z,10.57
2022-11-03T22:05:44.347Z,10.23
2022-11-03T22:08:12.682Z,10.33
2022-11-03T22:10:41.543Z,10.07
2022-11-03T22:13:10.433Z,10.83
2022-11-03T22:15:56.558Z,14.00
2022-11-03T22:18:26.378Z,11.40
2022-11-03T22:21:12.134Z,14.17
2022-11-03T22:23:57.779Z,19.40
2022-11-03T22:26:43.153Z,16.30
2022-11-03T22:29:28.689Z,14.97
2022-11-03T22:31:56.953Z,12.17
2022-11-03T22:34:44.308Z,10.50
2022-11-03T22:37:12.562Z,9.57
2022-11-03T22:39:58.219Z,9.07
2022-11-03T22:45:34.572Z,9.30
2022-11-03T22:48:04.770Z,8.10
2022-11-03T22:50:34.460Z,8.40
2022-11-03T22:53:23.048Z,7.87
2022-11-03T22:55:50.434Z,9.10
2022-11-03T22:58:18.826Z,8.63
2022-11-03T23:00:47.606Z,8.53
2022-11-03T23:03:16.144Z,9.07
2022-11-03T23:05:45.750Z,9.33
2022-11-03T23:08:14.037Z,9.00
2022-11-03T23:10:42.338Z,9.47
2022-11-03T23:13:11.080Z,8.63
2022-11-03T23:15:43.657Z,9.87
2022-11-03T23:18:29.470Z,8.70
2022-11-03T23:21:08.226Z,8.93
2022-11-03T23:23:54.853Z,8.13
2022-11-03T23:26:25.124Z,8.33
2022-11-03T23:28:53.804Z,8.33
2022-11-03T23:31:22.430Z,9.00
2022-11-03T23:33:50.735Z,9.43
2022-11-03T23:36:20.377Z,8.87
2022-11-03T23:38:48.565Z,9.00
2022-11-03T23:41:19.133Z,8.90
2022-11-03T23:43:48.213Z,7.80
2022-11-03T23:46:36.759Z,7.90
2022-11-03T23:49:05.401Z,7.80
2022-11-03T23:51:36.252Z,8.47
2022-11-03T23:54:06.769Z,9.30
2022-11-03T23:56:55.045Z,8.37
2022-11-03T23:59:24.205Z,8.70
